Time;durP1;ratioP1;P1;durP2;ratioP2;P2;SDS_P1;SDS_P2;PMS_P1;PMS_P2;Temp;Humidity;BMP_temperature;BMP_pressure;BME280_temperature;BME280_humidity;BME280_pressure;Samples;Min_cycle;Max_cycle;Signal;HPM_P1;HPM_P2
2021/03/29 00:01:26;;;;;;;11.13;6.78;;;;;;;;;;5079745;28;20194;-74
2021/03/29 00:03:52;;;;;;;11.05;6.90;;;;;;;;;;5092643;28;20262;-74
2021/03/29 00:06:18;;;;;;;9.30;7.07;;;;;;;;;;5079583;28;20560;-74
2021/03/29 00:08:45;;;;;;;10.68;6.63;;;;;;;;;;5093378;28;20532;-74
2021/03/29 00:11:12;;;;;;;10.18;7.13;;;;;;;;;;5100050;28;20167;-75
2021/03/29 00:13:38;;;;;;;11.32;7.32;;;;;;;;;;5092816;28;20233;-72
2021/03/29 00:16:05;;;;;;;11.18;6.70;;;;;;;;;;5093117;28;20215;-74
2021/03/29 00:18:31;;;;;;;12.55;5.85;;;;;;;;;;5106682;28;20179;-74
2021/03/29 00:21:08;;;;;;;8.32;5.95;;;;;;;;;;5093134;28;20182;-73
2021/03/29 00:23:35;;;;;;;8.95;6.55;;;;;;;;;;5093008;28;20504;-73
2021/03/29 00:26:01;;;;;;;9.82;5.53;;;;;;;;;;5093002;28;20199;-73
2021/03/29 00:28:27;;;;;;;9.77;5.70;;;;;;;;;;5106771;28;20178;-73
2021/03/29 00:30:53;;;;;;;9.20;5.45;;;;;;;;;;5093072;28;20175;-73
2021/03/29 00:33:21;;;;;;;11.85;4.90;;;;;;;;;;5093733;28;20191;-75
2021/03/29 00:35:49;;;;;;;10.57;6.20;;;;;;;;;;5097019;28;20199;-74
2021/03/29 00:38:15;;;;;;;9.00;5.20;;;;;;;;;;5099703;28;20200;-72
2021/03/29 00:40:47;;;;;;;8.93;5.32;;;;;;;;;;5107416;28;20243;-73
2021/03/29 00:43:13;;;;;;;8.50;5.05;;;;;;;;;;5097050;28;20584;-73
2021/03/29 00:45:39;;;;;;;6.43;5.00;;;;;;;;;;5096304;28;20199;-74
2021/03/29 00:48:05;;;;;;;7.95;5.13;;;;;;;;;;5096588;28;20644;-75
2021/03/29 00:50:43;;;;;;;13.25;4.97;;;;;;;;;;5095943;28;20182;-73
2021/03/29 00:53:10;;;;;;;7.93;4.93;;;;;;;;;;5095790;28;20555;-74
2021/03/29 00:55:36;;;;;;;9.15;4.63;;;;;;;;;;5096037;28;20203;-74
2021/03/29 00:58:02;;;;;;;7.27;4.70;;;;;;;;;;5096578;28;20176;-74
2021/03/29 01:00:33;;;;;;;8.52;5.05;;;;;;;;;;5095915;28;20449;-73
2021/03/29 01:02:59;;;;;;;9.35;5.00;;;;;;;;;;5102655;28;20178;-73
2021/03/29 01:05:25;;;;;;;8.85;5.30;;;;;;;;;;5112753;28;20217;-73
2021/03/29 01:07:53;;;;;;;8.68;4.72;;;;;;;;;;5096106;28;20233;-73
2021/03/29 01:10:19;;;;;;;10.45;5.13;;;;;;;;;;5095921;28;20540;-73
2021/03/29 01:12:47;;;;;;;9.73;5.65;;;;;;;;;;5095708;28;20249;-74
2021/03/29 01:15:14;;;;;;;11.00;5.00;;;;;;;;;;5096568;28;20585;-74
2021/03/29 01:17:41;;;;;;;5.85;5.22;;;;;;;;;;5116646;28;20261;-74
2021/03/29 01:20:09;;;;;;;6.70;4.75;;;;;;;;;;5102821;28;20172;-74
2021/03/29 01:22:51;;;;;;;8.93;5.75;;;;;;;;;;5117149;28;20287;-74
2021/03/29 01:25:21;;;;;;;7.68;5.22;;;;;;;;;;5116467;28;20191;-75
2021/03/29 01:27:59;;;;;;;9.48;5.05;;;;;;;;;;5106699;28;20635;-74
2021/03/29 01:30:26;;;;;;;16.05;5.40;;;;;;;;;;5095962;28;20178;-73
2021/03/29 01:32:53;;;;;;;9.52;5.65;;;;;;;;;;5096209;28;20648;-74
2021/03/29 01:35:30;;;;;;;5.40;4.90;;;;;;;;;;5112106;28;20559;-74
2021/03/29 01:37:57;;;;;;;13.15;6.20;;;;;;;;;;5116441;28;20178;-74
2021/03/29 01:40:24;;;;;;;6.57;4.88;;;;;;;;;;5109114;27;20179;-74
2021/03/29 01:42:50;;;;;;;8.35;6.07;;;;;;;;;;5095703;28;20179;-73
2021/03/29 01:45:17;;;;;;;9.85;6.10;;;;;;;;;;5094858;28;20199;-74
2021/03/29 01:47:43;;;;;;;7.32;6.40;;;;;;;;;;5095619;28;20625;-74
2021/03/29 01:50:11;;;;;;;11.50;6.15;;;;;;;;;;5095413;28;20194;-74
2021/03/29 01:52:37;;;;;;;8.27;6.18;;;;;;;;;;5095308;28;20278;-74
2021/03/29 01:55:05;;;;;;;10.55;7.30;;;;;;;;;;5095163;28;20191;-74
2021/03/29 01:57:31;;;;;;;8.40;6.10;;;;;;;;;;5096223;28;20628;-72
2021/03/29 01:59:57;;;;;;;7.40;5.82;;;;;;;;;;5115607;27;20212;-73
2021/03/29 02:02:23;;;;;;;9.50;5.68;;;;;;;;;;5115736;28;20210;-74
2021/03/29 02:04:50;;;;;;;7.97;6.47;;;;;;;;;;5103038;28;20219;-74
2021/03/29 02:07:16;;;;;;;8.45;6.47;;;;;;;;;;5109107;28;20175;-74
2021/03/29 02:09:42;;;;;;;14.73;6.78;;;;;;;;;;5094790;28;20179;-74
2021/03/29 02:12:09;;;;;;;8.15;5.88;;;;;;;;;;5095228;28;20198;-74
2021/03/29 02:14:36;;;;;;;10.45;5.90;;;;;;;;;;5094598;28;20192;-75
2021/03/29 02:17:05;;;;;;;9.48;6.07;;;;;;;;;;5094545;28;20497;-75
2021/03/29 02:19:31;;;;;;;10.05;6.72;;;;;;;;;;5095494;28;20529;-74
2021/03/29 02:21:57;;;;;;;9.20;5.97;;;;;;;;;;5094833;28;20188;-75
2021/03/29 02:24:23;;;;;;;9.80;6.38;;;;;;;;;;5093384;28;20172;-74
2021/03/29 02:26:49;;;;;;;10.77;6.70;;;;;;;;;;5098270;28;20535;-75
2021/03/29 02:29:27;;;;;;;8.70;5.63;;;;;;;;;;5101948;28;20190;-74
2021/03/29 02:31:54;;;;;;;8.68;5.72;;;;;;;;;;5094704;28;20555;-75
2021/03/29 02:34:20;;;;;;;13.43;6.53;;;;;;;;;;5094255;28;20183;-75
2021/03/29 02:36:47;;;;;;;10.32;6.22;;;;;;;;;;5094837;28;20313;-74
2021/03/29 02:39:13;;;;;;;13.63;5.80;;;;;;;;;;5094372;28;20171;-75
2021/03/29 02:41:39;;;;;;;9.45;6.38;;;;;;;;;;5094466;28;20190;-75
2021/03/29 02:44:06;;;;;;;10.43;6.50;;;;;;;;;;5094499;28;20250;-75
2021/03/29 02:46:32;;;;;;;16.13;7.38;;;;;;;;;;5106679;28;20593;-75
2021/03/29 02:49:00;;;;;;;8.65;6.57;;;;;;;;;;5106316;28;20662;-74
2021/03/29 02:51:26;;;;;;;10.38;5.90;;;;;;;;;;5109249;28;20176;-75
2021/03/29 02:53:57;;;;;;;9.35;5.70;;;;;;;;;;5093958;28;20207;-74
2021/03/29 02:56:25;;;;;;;8.80;5.80;;;;;;;;;;5093403;28;20566;-73
2021/03/29 02:58:53;;;;;;;9.93;5.97;;;;;;;;;;5094280;28;20183;-74
2021/03/29 03:01:22;;;;;;;14.63;7.28;;;;;;;;;;5100306;28;20178;-75
2021/03/29 03:03:51;;;;;;;7.93;6.50;;;;;;;;;;5100514;28;20179;-74
2021/03/29 03:06:19;;;;;;;7.32;6.30;;;;;;;;;;5090177;28;20202;-74
2021/03/29 03:08:45;;;;;;;8.65;5.72;;;;;;;;;;5094280;28;20193;-73
2021/03/29 03:11:11;;;;;;;11.20;6.07;;;;;;;;;;5093810;28;20183;-72
2021/03/29 03:13:38;;;;;;;8.60;6.10;;;;;;;;;;5104495;28;20199;-73
2021/03/29 03:16:05;;;;;;;14.35;6.68;;;;;;;;;;5093860;28;20187;-73
2021/03/29 03:18:31;;;;;;;11.45;6.45;;;;;;;;;;5108272;28;20770;-73
2021/03/29 03:20:58;;;;;;;14.43;7.10;;;;;;;;;;5098179;28;20170;-73
2021/03/29 03:23:24;;;;;;;10.85;6.30;;;;;;;;;;5107804;28;20190;-74
2021/03/29 03:25:51;;;;;;;9.80;5.95;;;;;;;;;;5099745;28;20202;-73
2021/03/29 03:28:18;;;;;;;9.43;6.65;;;;;;;;;;5094566;28;20222;-73
2021/03/29 03:30:55;;;;;;;7.72;6.40;;;;;;;;;;5095622;28;20183;-75
2021/03/29 03:33:23;;;;;;;11.15;7.10;;;;;;;;;;5089678;28;20203;-73
2021/03/29 03:35:50;;;;;;;7.65;6.00;;;;;;;;;;5101622;28;20222;-72
2021/03/29 03:38:24;;;;;;;8.10;6.50;;;;;;;;;;5110517;28;20186;-73
2021/03/29 03:41:08;;;;;;;8.82;6.68;;;;;;;;;;5104039;28;20631;-73
2021/03/29 03:43:39;;;;;;;9.98;6.45;;;;;;;;;;5096153;28;20637;-73
2021/03/29 03:46:11;;;;;;;7.60;6.88;;;;;;;;;;5106893;28;20551;-74
2021/03/29 03:48:38;;;;;;;9.73;7.18;;;;;;;;;;5093474;28;20228;-74
2021/03/29 03:51:05;;;;;;;12.05;6.53;;;;;;;;;;5092657;28;20175;-74
2021/03/29 03:53:32;;;;;;;9.88;6.75;;;;;;;;;;5092895;28;20264;-73
2021/03/29 03:55:59;;;;;;;8.35;6.60;;;;;;;;;;5093294;28;20187;-73
2021/03/29 03:58:25;;;;;;;8.65;6.13;;;;;;;;;;5100843;28;20178;-73
2021/03/29 04:00:52;;;;;;;9.55;6.78;;;;;;;;;;5095279;28;20206;-73
2021/03/29 04:03:18;;;;;;;9.77;6.20;;;;;;;;;;5113169;28;20224;-74
2021/03/29 04:05:44;;;;;;;9.32;6.28;;;;;;;;;;5097534;28;20211;-74
2021/03/29 04:08:11;;;;;;;8.85;6.45;;;;;;;;;;5092888;28;20175;-74
2021/03/29 04:13:07;;;;;;;10.68;6.25;;;;;;;;;;5100505;28;20234;-74
2021/03/29 04:15:33;;;;;;;11.90;7.32;;;;;;;;;;5106496;28;20187;-74
2021/03/29 04:17:59;;;;;;;8.88;6.40;;;;;;;;;;5093080;28;20183;-73
2021/03/29 04:20:25;;;;;;;7.90;6.10;;;;;;;;;;5092790;28;20229;-74
2021/03/29 04:22:51;;;;;;;13.55;5.88;;;;;;;;;;5093012;28;20319;-73
2021/03/29 04:25:17;;;;;;;11.95;6.70;;;;;;;;;;5094833;28;20198;-73
2021/03/29 04:27:43;;;;;;;11.73;5.90;;;;;;;;;;5092761;28;20182;-75
2021/03/29 04:30:11;;;;;;;11.00;7.25;;;;;;;;;;5092443;28;20187;-72
2021/03/29 04:32:38;;;;;;;10.00;6.88;;;;;;;;;;5103398;28;20198;-72
2021/03/29 04:35:04;;;;;;;9.85;6.40;;;;;;;;;;5104290;28;20284;-74
2021/03/29 04:37:30;;;;;;;9.73;6.00;;;;;;;;;;5103667;28;20167;-72
2021/03/29 04:39:56;;;;;;;11.47;6.47;;;;;;;;;;5094232;28;20544;-73
2021/03/29 04:42:22;;;;;;;8.23;5.85;;;;;;;;;;5095541;28;20432;-74
2021/03/29 04:44:48;;;;;;;10.07;5.95;;;;;;;;;;5103294;28;20201;-72
2021/03/29 04:47:14;;;;;;;8.85;5.40;;;;;;;;;;5113564;28;20177;-78
2021/03/29 04:49:41;;;;;;;11.95;5.70;;;;;;;;;;5102005;28;20522;-75
2021/03/29 04:52:07;;;;;;;10.10;5.20;;;;;;;;;;5092466;28;20203;-73
2021/03/29 04:54:33;;;;;;;6.70;5.45;;;;;;;;;;5092379;28;20704;-74
2021/03/29 04:56:59;;;;;;;8.57;5.70;;;;;;;;;;5092612;28;20183;-75
2021/03/29 04:59:26;;;;;;;7.18;4.63;;;;;;;;;;5097137;28;20254;-74
2021/03/29 05:01:52;;;;;;;11.00;5.53;;;;;;;;;;5098688;28;20190;-74
2021/03/29 05:04:18;;;;;;;7.63;4.90;;;;;;;;;;5092114;28;20216;-75
2021/03/29 05:06:44;;;;;;;14.40;7.93;;;;;;;;;;5097021;28;20728;-74
2021/03/29 05:09:10;;;;;;;8.73;5.72;;;;;;;;;;5106936;28;20174;-74
2021/03/29 05:11:53;;;;;;;9.75;5.18;;;;;;;;;;5096395;28;20425;-74
2021/03/29 05:14:20;;;;;;;9.50;4.57;;;;;;;;;;5091540;28;20225;-74
2021/03/29 05:16:46;;;;;;;6.22;4.65;;;;;;;;;;5105570;28;20183;-74
2021/03/29 05:19:13;;;;;;;6.97;5.25;;;;;;;;;;5110046;28;20273;-74
2021/03/29 05:21:39;;;;;;;9.70;5.40;;;;;;;;;;5095337;28;20167;-74
2021/03/29 05:24:05;;;;;;;7.30;4.80;;;;;;;;;;5113820;28;20377;-74
2021/03/29 05:26:32;;;;;;;7.70;5.22;;;;;;;;;;5100594;28;20249;-74
2021/03/29 05:28:58;;;;;;;6.68;5.10;;;;;;;;;;5098884;28;20573;-73
2021/03/29 05:31:24;;;;;;;7.03;4.88;;;;;;;;;;5096467;28;20617;-74
2021/03/29 05:33:50;;;;;;;6.78;4.40;;;;;;;;;;5098621;28;20206;-73
2021/03/29 05:36:17;;;;;;;9.88;5.03;;;;;;;;;;5095459;28;20244;-73
2021/03/29 05:38:44;;;;;;;8.02;5.05;;;;;;;;;;5095699;28;20170;-74
2021/03/29 05:41:13;;;;;;;9.13;6.22;;;;;;;;;;5096007;28;20508;-74
2021/03/29 05:43:40;;;;;;;8.00;5.35;;;;;;;;;;5092720;28;20179;-75
2021/03/29 05:46:06;;;;;;;8.77;5.25;;;;;;;;;;5095744;28;20206;-74
2021/03/29 05:48:32;;;;;;;6.40;4.70;;;;;;;;;;5108996;28;20179;-73
2021/03/29 05:51:00;;;;;;;8.43;4.70;;;;;;;;;;5095210;28;20321;-74
2021/03/29 05:53:26;;;;;;;13.10;4.97;;;;;;;;;;5092673;28;20207;-74
2021/03/29 05:55:52;;;;;;;7.07;4.43;;;;;;;;;;5095282;28;20206;-74
2021/03/29 06:01:07;;;;;;;8.30;5.10;;;;;;;;;;5093012;28;20190;-74
2021/03/29 06:03:38;;;;;;;8.77;4.85;;;;;;;;;;5095006;28;20179;-75
2021/03/29 06:06:13;;;;;;;7.65;4.28;;;;;;;;;;5098819;28;20690;-75
2021/03/29 06:08:46;;;;;;;11.32;4.95;;;;;;;;;;5103028;28;20171;-74
2021/03/29 06:11:28;;;;;;;8.40;4.35;;;;;;;;;;5102367;28;20182;-73
2021/03/29 06:14:13;;;;;;;6.70;4.85;;;;;;;;;;5109108;28;20223;-73
2021/03/29 06:16:52;;;;;;;6.75;4.22;;;;;;;;;;5086874;28;20199;-74
2021/03/29 06:19:33;;;;;;;12.70;4.75;;;;;;;;;;5081770;28;20172;-73
2021/03/29 06:22:18;;;;;;;6.38;5.00;;;;;;;;;;5110848;28;20648;-73
2021/03/29 06:24:53;;;;;;;9.30;4.60;;;;;;;;;;5102665;28;20345;-73
2021/03/29 06:27:20;;;;;;;6.22;4.10;;;;;;;;;;5094758;28;20591;-72
2021/03/29 06:29:47;;;;;;;7.75;4.47;;;;;;;;;;5094107;28;20256;-74
2021/03/29 06:32:19;;;;;;;8.38;4.75;;;;;;;;;;5093127;28;20200;-73
2021/03/29 06:34:49;;;;;;;6.20;4.68;;;;;;;;;;5100134;28;20191;-74
2021/03/29 06:37:19;;;;;;;9.38;4.85;;;;;;;;;;5087939;28;20171;-74
2021/03/29 06:39:45;;;;;;;5.80;4.70;;;;;;;;;;5088053;28;20182;-74
2021/03/29 06:42:12;;;;;;;7.85;5.45;;;;;;;;;;5111440;28;20194;-75
2021/03/29 06:44:39;;;;;;;7.13;4.47;;;;;;;;;;5089009;28;20214;-74
2021/03/29 06:47:06;;;;;;;8.05;5.13;;;;;;;;;;5084189;28;20188;-75
2021/03/29 06:49:48;;;;;;;5.80;4.35;;;;;;;;;;5092742;28;20553;-75
2021/03/29 06:52:20;;;;;;;8.65;4.30;;;;;;;;;;5091610;28;20328;-75
2021/03/29 06:54:47;;;;;;;6.93;4.68;;;;;;;;;;5105511;28;20269;-75
2021/03/29 06:57:13;;;;;;;9.00;4.47;;;;;;;;;;5097101;27;20602;-74
2021/03/29 06:59:39;;;;;;;6.30;3.95;;;;;;;;;;5110916;28;20187;-74
2021/03/29 07:02:08;;;;;;;6.40;3.93;;;;;;;;;;5102374;27;20203;-74
2021/03/29 07:04:36;;;;;;;5.85;4.20;;;;;;;;;;5096249;28;20607;-73
2021/03/29 07:07:03;;;;;;;6.97;4.60;;;;;;;;;;5103258;28;20714;-74
2021/03/29 07:09:33;;;;;;;6.65;4.30;;;;;;;;;;5090246;28;20660;-74
2021/03/29 07:12:00;;;;;;;7.88;4.50;;;;;;;;;;5100527;28;20186;-75
2021/03/29 07:14:27;;;;;;;6.55;4.55;;;;;;;;;;5094657;28;20162;-74
2021/03/29 07:16:56;;;;;;;7.78;4.70;;;;;;;;;;5096175;28;20184;-73
2021/03/29 07:19:23;;;;;;;5.80;4.60;;;;;;;;;;5093571;28;20169;-73
2021/03/29 07:21:49;;;;;;;8.57;4.55;;;;;;;;;;5090264;28;20533;-74
2021/03/29 07:24:15;;;;;;;9.02;4.35;;;;;;;;;;5100320;28;20183;-73
2021/03/29 07:26:58;;;;;;;7.80;4.88;;;;;;;;;;5110408;28;20262;-74
2021/03/29 07:29:28;;;;;;;7.57;4.78;;;;;;;;;;5096869;28;20179;-73
2021/03/29 07:31:58;;;;;;;5.95;4.50;;;;;;;;;;5079441;28;20182;-74
2021/03/29 07:34:42;;;;;;;5.80;4.38;;;;;;;;;;5089488;28;20652;-74
2021/03/29 07:37:27;;;;;;;9.30;5.60;;;;;;;;;;5079406;28;20187;-74
2021/03/29 07:39:54;;;;;;;6.75;4.40;;;;;;;;;;5089500;28;20179;-73
2021/03/29 07:42:23;;;;;;;8.55;4.60;;;;;;;;;;5098494;28;20191;-74
2021/03/29 07:44:53;;;;;;;6.45;4.60;;;;;;;;;;5092230;28;20210;-74
2021/03/29 07:47:38;;;;;;;10.68;4.53;;;;;;;;;;5101849;28;20175;-74
2021/03/29 07:50:04;;;;;;;6.13;4.55;;;;;;;;;;5087476;28;20269;-74
2021/03/29 07:52:40;;;;;;;9.68;4.45;;;;;;;;;;5106631;28;20613;-74
2021/03/29 07:55:20;;;;;;;7.75;4.38;;;;;;;;;;5089782;28;20203;-74
2021/03/29 07:57:46;;;;;;;6.50;4.60;;;;;;;;;;5089379;28;20175;-74
2021/03/29 08:00:26;;;;;;;8.55;4.65;;;;;;;;;;5089279;28;20539;-74
2021/03/29 08:02:52;;;;;;;6.70;4.70;;;;;;;;;;5088640;28;20171;-75
2021/03/29 08:05:37;;;;;;;10.00;5.47;;;;;;;;;;5089023;28;20591;-74
2021/03/29 08:08:04;;;;;;;6.60;4.50;;;;;;;;;;5089406;28;20405;-74
2021/03/29 08:10:49;;;;;;;6.65;4.63;;;;;;;;;;5089369;28;20187;-74
2021/03/29 08:13:34;;;;;;;7.70;4.18;;;;;;;;;;5075698;28;20244;-74
2021/03/29 08:16:00;;;;;;;8.85;4.20;;;;;;;;;;5089410;28;20200;-73
2021/03/29 08:18:27;;;;;;;6.10;4.40;;;;;;;;;;5098885;28;20263;-75
2021/03/29 08:20:53;;;;;;;8.75;4.47;;;;;;;;;;5094311;28;20167;-75
2021/03/29 08:23:36;;;;;;;6.65;4.70;;;;;;;;;;5088531;28;20285;-75
2021/03/29 08:26:05;;;;;;;5.43;4.50;;;;;;;;;;5088803;28;20202;-74
2021/03/29 08:28:51;;;;;;;6.68;4.38;;;;;;;;;;5088861;28;20183;-75
2021/03/29 08:31:35;;;;;;;9.15;5.25;;;;;;;;;;5077668;28;20187;-75
2021/03/29 08:34:01;;;;;;;6.93;4.30;;;;;;;;;;5088955;28;20305;-75
2021/03/29 08:36:27;;;;;;;6.90;4.18;;;;;;;;;;5088908;28;20825;-75
2021/03/29 08:38:54;;;;;;;9.38;4.60;;;;;;;;;;5107407;28;20265;-75
2021/03/29 08:41:21;;;;;;;9.90;4.85;;;;;;;;;;5097166;28;20191;-75
2021/03/29 08:43:47;;;;;;;8.00;5.65;;;;;;;;;;5088611;28;20640;-75
2021/03/29 08:46:13;;;;;;;6.82;4.72;;;;;;;;;;5086883;28;20318;-75
2021/03/29 08:48:44;;;;;;;5.28;4.78;;;;;;;;;;5088939;28;20183;-75
2021/03/29 08:51:19;;;;;;;6.95;4.30;;;;;;;;;;5094798;28;20210;-75
2021/03/29 08:53:45;;;;;;;7.13;5.03;;;;;;;;;;5083550;28;20350;-75
2021/03/29 08:56:11;;;;;;;5.60;5.00;;;;;;;;;;5103969;28;20195;-75
2021/03/29 08:58:38;;;;;;;10.45;4.50;;;;;;;;;;5092339;28;20176;-75
2021/03/29 09:01:03;;;;;;;8.32;5.00;;;;;;;;;;5097986;28;20179;-73
2021/03/29 09:03:30;;;;;;;10.07;5.93;;;;;;;;;;5092330;28;20184;-74
2021/03/29 09:05:56;;;;;;;7.22;4.53;;;;;;;;;;5098580;28;20457;-75
2021/03/29 09:08:22;;;;;;;7.32;5.13;;;;;;;;;;5099749;28;20178;-75
2021/03/29 09:10:48;;;;;;;7.53;5.22;;;;;;;;;;5093017;28;20660;-75
2021/03/29 09:13:15;;;;;;;7.53;4.80;;;;;;;;;;5097289;28;20679;-74
2021/03/29 09:15:42;;;;;;;8.25;5.10;;;;;;;;;;5092080;28;20895;-74
2021/03/29 09:18:10;;;;;;;8.80;5.05;;;;;;;;;;5098324;28;20178;-75
2021/03/29 09:20:39;;;;;;;7.32;4.75;;;;;;;;;;5092100;28;20172;-74
2021/03/29 09:23:05;;;;;;;9.13;6.05;;;;;;;;;;5090207;28;20224;-73
2021/03/29 09:25:35;;;;;;;8.13;5.75;;;;;;;;;;5092003;28;20658;-74
2021/03/29 09:28:09;;;;;;;19.02;11.20;;;;;;;;;;5094923;28;20667;-74
2021/03/29 09:30:35;;;;;;;7.18;4.80;;;;;;;;;;5095321;28;20841;-74
2021/03/29 09:33:01;;;;;;;6.22;4.38;;;;;;;;;;5091275;28;20210;-74
2021/03/29 09:35:27;;;;;;;7.60;5.37;;;;;;;;;;5090236;28;20195;-74
2021/03/29 09:37:53;;;;;;;7.30;5.00;;;;;;;;;;5098936;28;20417;-74
2021/03/29 09:40:19;;;;;;;7.57;4.50;;;;;;;;;;5091689;28;20418;-74
2021/03/29 09:42:47;;;;;;;7.50;5.10;;;;;;;;;;5099000;28;20418;-75
2021/03/29 09:45:14;;;;;;;7.00;4.93;;;;;;;;;;5098851;28;20443;-74
2021/03/29 09:47:40;;;;;;;7.10;5.10;;;;;;;;;;5098720;28;20414;-75
2021/03/29 09:50:10;;;;;;;9.80;5.37;;;;;;;;;;5091698;28;20435;-74
2021/03/29 09:52:37;;;;;;;7.87;4.73;;;;;;;;;;5091678;28;20508;-75
2021/03/29 09:55:04;;;;;;;8.03;4.80;;;;;;;;;;5091118;28;20447;-74
2021/03/29 09:57:36;;;;;;;7.30;4.93;;;;;;;;;;5091730;28;20444;-74
2021/03/29 10:00:19;;;;;;;7.80;5.47;;;;;;;;;;5091568;28;20999;-74
2021/03/29 10:02:46;;;;;;;6.97;4.73;;;;;;;;;;5092712;28;20840;-75
2021/03/29 10:05:13;;;;;;;6.83;4.77;;;;;;;;;;5097460;28;20467;-74
2021/03/29 10:07:53;;;;;;;10.40;5.50;;;;;;;;;;5090662;28;20439;-74
2021/03/29 10:10:24;;;;;;;7.47;5.53;;;;;;;;;;5091338;28;21197;-74
2021/03/29 10:12:50;;;;;;;7.27;5.27;;;;;;;;;;5094156;28;20882;-74
2021/03/29 10:15:16;;;;;;;7.27;5.50;;;;;;;;;;5095194;28;20467;-74
2021/03/29 10:17:42;;;;;;;11.60;4.87;;;;;;;;;;5095831;28;20472;-76
2021/03/29 10:20:09;;;;;;;7.47;5.03;;;;;;;;;;5108422;28;20463;-75
2021/03/29 10:22:36;;;;;;;6.10;4.90;;;;;;;;;;5111682;28;20523;-74
2021/03/29 10:25:04;;;;;;;6.37;4.50;;;;;;;;;;5109933;28;20433;-74
2021/03/29 10:27:39;;;;;;;8.60;5.03;;;;;;;;;;5092469;28;20489;-74
2021/03/29 10:30:07;;;;;;;6.20;4.70;;;;;;;;;;5091512;28;20426;-74
2021/03/29 10:32:33;;;;;;;7.53;5.20;;;;;;;;;;5104425;28;20451;-73
2021/03/29 10:34:59;;;;;;;5.60;4.37;;;;;;;;;;5095632;28;20495;-73
2021/03/29 10:37:25;;;;;;;8.23;5.00;;;;;;;;;;5077812;28;20432;-75
2021/03/29 10:39:51;;;;;;;6.03;5.03;;;;;;;;;;5090639;28;20413;-76
2021/03/29 10:42:18;;;;;;;6.13;5.20;;;;;;;;;;5084612;28;20523;-74
2021/03/29 10:44:44;;;;;;;5.50;4.70;;;;;;;;;;5109105;28;20432;-73
2021/03/29 10:47:11;;;;;;;5.90;5.30;;;;;;;;;;5090826;28;20414;-73
2021/03/29 10:49:37;;;;;;;6.07;5.07;;;;;;;;;;5087275;28;20434;-73
2021/03/29 10:52:04;;;;;;;8.80;5.37;;;;;;;;;;5110859;28;20420;-74
2021/03/29 10:54:30;;;;;;;5.50;5.00;;;;;;;;;;5096718;28;20445;-73
2021/03/29 10:56:56;;;;;;;5.97;5.30;;;;;;;;;;5090296;28;20429;-74
2021/03/29 10:59:22;;;;;;;5.73;4.97;;;;;;;;;;5090671;28;20444;-75
2021/03/29 11:01:48;;;;;;;7.50;5.97;;;;;;;;;;5103915;28;20780;-71
2021/03/29 11:04:14;;;;;;;5.93;4.77;;;;;;;;;;5093025;28;20525;-73
2021/03/29 11:06:40;;;;;;;5.40;4.90;;;;;;;;;;5090551;28;20409;-74
2021/03/29 11:09:06;;;;;;;6.03;4.33;;;;;;;;;;5104804;28;20909;-74
2021/03/29 11:11:32;;;;;;;5.73;5.20;;;;;;;;;;5102198;28;20425;-74
2021/03/29 11:13:58;;;;;;;8.63;5.17;;;;;;;;;;5089802;28;20909;-75
2021/03/29 11:16:25;;;;;;;5.83;5.17;;;;;;;;;;5110713;28;20556;-74
2021/03/29 11:18:51;;;;;;;5.57;4.93;;;;;;;;;;5106039;28;20412;-73
2021/03/29 11:21:17;;;;;;;7.57;5.50;;;;;;;;;;5090420;28;20405;-75
2021/03/29 11:23:43;;;;;;;6.80;6.10;;;;;;;;;;5090177;28;20421;-75
2021/03/29 11:26:09;;;;;;;7.17;5.47;;;;;;;;;;5098952;28;20546;-76
2021/03/29 11:28:35;;;;;;;6.50;5.00;;;;;;;;;;5110825;28;20409;-74
2021/03/29 11:31:01;;;;;;;5.27;4.77;;;;;;;;;;5097901;28;21218;-74
2021/03/29 11:33:27;;;;;;;8.50;5.30;;;;;;;;;;5089788;28;20465;-76
2021/03/29 11:35:53;;;;;;;5.80;5.20;;;;;;;;;;5090180;28;20483;-77
2021/03/29 11:38:20;;;;;;;5.60;4.97;;;;;;;;;;5090042;28;20414;-76
2021/03/29 11:40:46;;;;;;;5.70;5.13;;;;;;;;;;5090563;28;20878;-74
2021/03/29 11:43:12;;;;;;;7.27;6.10;;;;;;;;;;5090806;28;20406;-74
2021/03/29 11:45:38;;;;;;;6.30;5.57;;;;;;;;;;5102688;28;20443;-76
2021/03/29 11:48:04;;;;;;;6.00;5.40;;;;;;;;;;5092636;28;20555;-75
2021/03/29 11:50:30;;;;;;;5.87;5.13;;;;;;;;;;5070119;28;20779;-75
2021/03/29 11:52:56;;;;;;;5.63;5.13;;;;;;;;;;5083367;28;20864;-75
2021/03/29 11:55:22;;;;;;;6.30;5.60;;;;;;;;;;5090467;28;20430;-75
2021/03/29 11:57:49;;;;;;;8.40;5.93;;;;;;;;;;5089714;28;20413;-75
2021/03/29 12:00:52;;;;;;;7.47;5.60;;;;;;;;;;5090401;28;21119;-74
2021/03/29 12:03:14;;;;;;;6.10;5.50;;;;;;;;;;5089499;28;20418;-75
2021/03/29 12:06:06;;;;;;;6.57;5.93;;;;;;;;;;5090307;28;20445;-74
2021/03/29 12:08:33;;;;;;;5.80;5.30;;;;;;;;;;5089684;28;20561;-74
2021/03/29 12:13:44;;;;;;;6.17;5.57;;;;;;;;;;5106795;28;20474;-76
2021/03/29 12:16:11;;;;;;;6.53;5.70;;;;;;;;;;5092771;28;20938;-75
2021/03/29 12:18:42;;;;;;;6.30;5.70;;;;;;;;;;5098295;28;20425;-75
2021/03/29 12:21:10;;;;;;;6.37;5.77;;;;;;;;;;5090825;28;20448;-74
2021/03/29 12:23:37;;;;;;;6.57;5.87;;;;;;;;;;5090226;28;20429;-75
2021/03/29 12:26:04;;;;;;;9.07;5.77;;;;;;;;;;5095181;28;20444;-75
2021/03/29 12:28:31;;;;;;;5.50;5.00;;;;;;;;;;5098376;28;20414;-74
2021/03/29 12:30:58;;;;;;;6.70;5.30;;;;;;;;;;5095909;28;20421;-74
2021/03/29 12:33:25;;;;;;;6.30;5.70;;;;;;;;;;5101494;28;20510;-74
2021/03/29 12:35:54;;;;;;;6.70;6.10;;;;;;;;;;5117035;28;20432;-73
2021/03/29 12:38:21;;;;;;;6.43;5.80;;;;;;;;;;5114896;28;20427;-73
2021/03/29 12:40:47;;;;;;;5.90;5.40;;;;;;;;;;5099040;28;20429;-73
2021/03/29 12:43:30;;;;;;;6.80;6.00;;;;;;;;;;5102247;28;20435;-74
2021/03/29 12:45:56;;;;;;;7.20;6.03;;;;;;;;;;5096442;28;20440;-75
2021/03/29 12:48:22;;;;;;;6.90;6.30;;;;;;;;;;5093191;28;20413;-75
2021/03/29 12:50:48;;;;;;;7.40;5.90;;;;;;;;;;5093247;28;20436;-75
2021/03/29 12:53:14;;;;;;;7.80;5.87;;;;;;;;;;5095806;28;20492;-74
2021/03/29 12:55:40;;;;;;;6.83;5.90;;;;;;;;;;5106774;28;20440;-75
2021/03/29 12:58:06;;;;;;;7.43;6.10;;;;;;;;;;5096449;28;20886;-75
2021/03/29 13:00:32;;;;;;;7.50;6.17;;;;;;;;;;5092646;28;20428;-75
2021/03/29 13:03:00;;;;;;;6.67;6.07;;;;;;;;;;5092473;28;20911;-75
2021/03/29 13:13:08;;;;;;;8.60;6.47;;;;;;;;;;5110868;28;20971;-75
2021/03/29 13:15:34;;;;;;;7.30;6.60;;;;;;;;;;5093743;28;20437;-75
2021/03/29 13:18:00;;;;;;;6.97;6.37;;;;;;;;;;5097014;28;20412;-75
2021/03/29 13:20:27;;;;;;;9.30;6.17;;;;;;;;;;5105955;28;20443;-74
2021/03/29 13:22:53;;;;;;;5.83;5.33;;;;;;;;;;5099651;27;21062;-74
2021/03/29 13:25:21;;;;;;;6.83;6.13;;;;;;;;;;5091991;28;20441;-74
2021/03/29 13:27:47;;;;;;;9.03;7.03;;;;;;;;;;5100964;28;20478;-75
2021/03/29 13:30:15;;;;;;;7.30;6.60;;;;;;;;;;5092266;28;20421;-74
2021/03/29 13:32:41;;;;;;;10.70;7.87;;;;;;;;;;5096776;28;21028;-75
2021/03/29 13:35:08;;;;;;;9.90;6.53;;;;;;;;;;5091488;28;20477;-75
2021/03/29 13:37:34;;;;;;;8.87;6.53;;;;;;;;;;5092215;28;20608;-75
2021/03/29 13:40:01;;;;;;;7.00;6.30;;;;;;;;;;5091600;28;20425;-75
2021/03/29 13:42:27;;;;;;;7.00;6.30;;;;;;;;;;5111693;28;20439;-75
2021/03/29 13:44:53;;;;;;;6.80;6.10;;;;;;;;;;5110316;28;20526;-75
2021/03/29 13:47:19;;;;;;;8.73;6.90;;;;;;;;;;5091824;28;20425;-74
2021/03/29 13:49:47;;;;;;;7.97;6.83;;;;;;;;;;5089486;28;20783;-75
2021/03/29 13:52:13;;;;;;;9.30;6.93;;;;;;;;;;5091735;28;20461;-74
2021/03/29 13:54:39;;;;;;;12.33;9.73;;;;;;;;;;5091003;28;20457;-74
2021/03/29 13:57:06;;;;;;;10.00;8.10;;;;;;;;;;5091779;28;20777;-74
2021/03/29 13:59:32;;;;;;;7.60;6.60;;;;;;;;;;5091595;28;20413;-74
2021/03/29 14:01:58;;;;;;;8.93;7.03;;;;;;;;;;5091432;28;20484;-75
2021/03/29 14:04:24;;;;;;;8.30;7.20;;;;;;;;;;5104807;28;20837;-74
2021/03/29 14:06:50;;;;;;;8.83;7.20;;;;;;;;;;5091251;28;20424;-74
2021/03/29 14:09:18;;;;;;;7.40;6.57;;;;;;;;;;5107023;28;20511;-74
2021/03/29 14:11:45;;;;;;;7.70;6.83;;;;;;;;;;5110936;28;20412;-74
2021/03/29 14:14:11;;;;;;;7.10;6.50;;;;;;;;;;5093510;28;20511;-75
2021/03/29 14:16:37;;;;;;;9.43;7.27;;;;;;;;;;5111816;28;20434;-76
2021/03/29 14:19:06;;;;;;;11.00;7.53;;;;;;;;;;5091731;28;20422;-74
2021/03/29 14:21:32;;;;;;;8.40;7.03;;;;;;;;;;5089271;28;20426;-74
2021/03/29 14:23:58;;;;;;;8.30;6.67;;;;;;;;;;5107247;28;20449;-75
2021/03/29 14:26:24;;;;;;;8.40;6.40;;;;;;;;;;5094661;28;21084;-75
2021/03/29 14:28:50;;;;;;;9.00;6.87;;;;;;;;;;5090916;28;21166;-75
2021/03/29 14:31:16;;;;;;;8.17;7.33;;;;;;;;;;5094218;28;20465;-74
2021/03/29 14:33:43;;;;;;;9.33;7.17;;;;;;;;;;5096885;28;20459;-74
2021/03/29 14:44:04;;;;;;;8.87;6.70;;;;;;;;;;5090377;28;20433;-73
2021/03/29 14:46:30;;;;;;;7.80;6.60;;;;;;;;;;5092720;28;20433;-74
2021/03/29 14:48:56;;;;;;;7.37;6.67;;;;;;;;;;5105906;28;20497;-74
2021/03/29 14:51:23;;;;;;;9.53;6.60;;;;;;;;;;5089437;28;20789;-74
2021/03/29 14:53:49;;;;;;;7.63;6.90;;;;;;;;;;5089587;28;20594;-74
2021/03/29 14:56:15;;;;;;;9.20;7.53;;;;;;;;;;5090298;28;20488;-74
2021/03/29 14:58:41;;;;;;;8.30;7.43;;;;;;;;;;5092795;28;20629;-74
2021/03/29 15:01:08;;;;;;;7.70;6.90;;;;;;;;;;5090277;28;20459;-74
2021/03/29 15:03:34;;;;;;;10.27;7.20;;;;;;;;;;5089876;28;20433;-74
2021/03/29 15:08:26;;;;;;;12.40;8.40;;;;;;;;;;5090262;28;20435;-75
2021/03/29 15:10:52;;;;;;;9.23;7.30;;;;;;;;;;5104047;28;20413;-73
2021/03/29 15:13:18;;;;;;;10.13;8.13;;;;;;;;;;5089452;28;20466;-74